ESCF

Malmen Air Base Airport

Linköping, Sweden
METAR ESCF 092150Z AUTO 26006KT 9999 OVC140/// 00/M01 Q0988
Observed Flight Rules
Dec-9 @ 21:50 UTC (30 minutes ago) Visual Flight Rules
Wind Visibility Clouds
260° at 6 knots 10,000+ meters
  • Overcast at 14,000' AGL
Temperatures Readings
Current 0°C / 32°F
Dewpoint -1°C / 30°F
Humidity 93%
Altimeter 29.17" Hg
Pressure 988 hPa
Elevation 117
METAR ESCF 092150Z AUTO 26006KT 9999 OVC140/// 00/M01 Q0988
Observed Flight Rules
Dec-9 @ 21:50 UTC
(30 minutes ago)
VFR
Wind Visibility
260° at 6 knots 10,000+ meters
Clouds
  • Overcast at 14,000' AGL
Temperature Dewpoint
0°C / 32°F -1°C / 30°F
Humidity Altimeter Pressure
93% 29.17" Hg 988 hPa